createdAt,value
2023-01-08T00:00:35.367Z,96.71
2023-01-08T00:03:22.477Z,96.54
2023-01-08T00:06:10.033Z,96.32
2023-01-08T00:08:57.128Z,97.30
2023-01-08T00:11:44.048Z,97.18
2023-01-08T00:14:31.735Z,96.30
2023-01-08T00:17:18.596Z,96.80
2023-01-08T00:20:05.700Z,97.30
2023-01-08T00:22:52.590Z,96.87
2023-01-08T00:25:40.690Z,97.08
2023-01-08T00:28:27.642Z,96.33
2023-01-08T00:31:14.782Z,96.72
2023-01-08T00:34:01.967Z,97.10
2023-01-08T00:36:49.098Z,96.52
2023-01-08T00:39:36.146Z,96.25
2023-01-08T00:42:23.166Z,97.40
2023-01-08T00:45:10.124Z,97.13
2023-01-08T00:47:57.209Z,96.88
2023-01-08T00:50:44.554Z,96.34
2023-01-08T00:53:32.238Z,96.32
2023-01-08T00:56:23.763Z,97.13
2023-01-08T00:59:10.948Z,97.06
2023-01-08T01:01:59.018Z,97.50
2023-01-08T01:04:46.864Z,96.86
2023-01-08T01:07:33.769Z,97.15
2023-01-08T01:10:21.287Z,96.99
2023-01-08T01:13:08.244Z,96.37
2023-01-08T01:15:55.208Z,96.37
2023-01-08T01:18:42.271Z,97.26
2023-01-08T01:21:37.405Z,96.39
2023-01-08T01:24:26.613Z,96.91
2023-01-08T01:27:13.559Z,97.29
2023-01-08T01:30:00.861Z,96.79
2023-01-08T01:32:47.794Z,96.20
2023-01-08T01:35:34.739Z,96.96
2023-01-08T01:38:21.610Z,97.23
2023-01-08T01:41:08.485Z,96.88
2023-01-08T01:44:03.440Z,96.73
2023-01-08T01:47:00.317Z,97.25
2023-01-08T01:49:47.677Z,96.29
2023-01-08T01:52:34.986Z,96.37
2023-01-08T01:55:24.488Z,97.41
2023-01-08T01:58:20.333Z,97.33
2023-01-08T02:01:07.672Z,96.29
2023-01-08T02:03:58.148Z,97.29
2023-01-08T02:06:51.499Z,96.15
2023-01-08T02:09:47.813Z,96.21
2023-01-08T02:12:41.848Z,96.55
2023-01-08T02:15:12.804Z,97.04
2023-01-08T02:17:48.283Z,97.23
2023-01-08T02:20:22.070Z,97.13
2023-01-08T02:23:01.102Z,96.65
2023-01-08T02:25:46.287Z,97.10
2023-01-08T02:28:15.618Z,97.03
2023-01-08T02:30:46.014Z,96.01
2023-01-08T02:33:12.929Z,96.67
2023-01-08T02:35:48.905Z,96.65
2023-01-08T02:38:17.956Z,96.61
2023-01-08T02:41:06.434Z,97.23
2023-01-08T02:43:43.094Z,96.97
2023-01-08T02:46:15.130Z,95.95
2023-01-08T02:48:47.652Z,96.31
2023-01-08T02:51:40.499Z,96.16
2023-01-08T02:54:13.148Z,96.56
2023-01-08T02:56:45.148Z,96.85
2023-01-08T02:59:14.393Z,96.36
2023-01-08T03:01:42.601Z,96.53
2023-01-08T03:04:22.157Z,96.86
2023-01-08T03:06:50.380Z,95.82
2023-01-08T03:09:18.075Z,96.70
2023-01-08T03:12:20.852Z,97.11
2023-01-08T03:15:26.595Z,96.55
2023-01-08T03:18:19.133Z,96.45
2023-01-08T03:21:07.558Z,96.77
2023-01-08T03:23:58.699Z,96.45
2023-01-08T03:26:47.586Z,96.25
2023-01-08T03:29:39.107Z,96.87
2023-01-08T03:32:33.450Z,95.86
2023-01-08T03:35:22.899Z,96.85
2023-01-08T03:38:16.569Z,96.08
2023-01-08T03:41:08.318Z,96.25
2023-01-08T03:43:55.325Z,96.72
2023-01-08T03:46:49.514Z,97.08
2023-01-08T03:49:37.871Z,96.02
2023-01-08T03:52:24.992Z,97.22
2023-01-08T03:55:12.450Z,95.96
2023-01-08T03:57:39.366Z,95.99
2023-01-08T04:00:06.990Z,96.18
2023-01-08T04:02:33.994Z,96.03
2023-01-08T04:05:01.165Z,95.77
2023-01-08T04:07:28.180Z,96.82
2023-01-08T04:09:55.037Z,95.77
2023-01-08T04:12:21.988Z,96.36
2023-01-08T04:14:48.975Z,96.61
2023-01-08T04:17:36.000Z,97.02
2023-01-08T04:20:23.466Z,96.14
2023-01-08T04:23:10.465Z,96.60
2023-01-08T04:25:57.951Z,96.28
2023-01-08T04:28:45.000Z,97.06
2023-01-08T04:31:31.998Z,95.81
2023-01-08T04:34:18.944Z,96.89
2023-01-08T04:37:05.953Z,96.91
2023-01-08T04:39:52.985Z,97.07
2023-01-08T04:42:39.949Z,96.24
2023-01-08T04:45:27.810Z,96.86
2023-01-08T04:48:18.932Z,96.71
2023-01-08T04:51:05.986Z,96.66
2023-01-08T04:53:57.997Z,96.25
2023-01-08T04:56:45.054Z,96.63
2023-01-08T04:59:31.958Z,96.87
2023-01-08T05:02:19.254Z,96.90
2023-01-08T05:05:08.040Z,96.47
2023-01-08T05:07:55.052Z,96.34
2023-01-08T05:10:42.059Z,97.06
2023-01-08T05:13:29.122Z,95.92
2023-01-08T05:16:20.687Z,96.53
2023-01-08T05:19:07.884Z,96.30
2023-01-08T05:21:54.843Z,95.92
2023-01-08T05:24:42.297Z,95.97
2023-01-08T05:27:29.299Z,96.87
2023-01-08T05:30:16.289Z,96.95
2023-01-08T05:33:03.306Z,96.43
2023-01-08T05:35:50.308Z,96.72
2023-01-08T05:38:37.277Z,96.52
2023-01-08T05:41:24.760Z,96.40
2023-01-08T05:44:11.602Z,96.91
2023-01-08T05:46:58.526Z,96.83
2023-01-08T05:49:45.549Z,95.94
2023-01-08T05:52:32.473Z,96.87
2023-01-08T05:55:19.630Z,96.10
2023-01-08T05:58:06.622Z,96.55
2023-01-08T06:00:54.595Z,96.08
2023-01-08T06:03:42.820Z,96.92
2023-01-08T06:06:30.839Z,96.52
2023-01-08T06:09:17.847Z,97.03
2023-01-08T06:12:04.870Z,97.09
2023-01-08T06:14:52.183Z,96.65
2023-01-08T06:17:39.089Z,96.82
2023-01-08T06:20:26.598Z,96.21
2023-01-08T06:23:13.981Z,96.65
2023-01-08T06:26:01.049Z,96.93
2023-01-08T06:28:48.247Z,95.95
2023-01-08T06:31:35.316Z,97.27
2023-01-08T06:34:22.239Z,96.06
2023-01-08T06:37:09.286Z,97.15
2023-01-08T06:39:56.145Z,96.80
2023-01-08T06:42:43.337Z,96.26
2023-01-08T06:45:30.842Z,96.83
2023-01-08T06:48:23.358Z,96.94
2023-01-08T06:51:10.493Z,96.43
2023-01-08T06:53:57.596Z,96.33
2023-01-08T06:56:53.401Z,96.80
2023-01-08T06:59:41.781Z,96.41
2023-01-08T07:02:38.650Z,96.35
2023-01-08T07:05:26.094Z,96.59
2023-01-08T07:08:13.226Z,97.33
2023-01-08T07:11:00.414Z,96.32
2023-01-08T07:13:47.377Z,97.28
2023-01-08T07:16:35.228Z,97.40
2023-01-08T07:19:22.115Z,97.00
2023-01-08T07:22:09.020Z,97.16
2023-01-08T07:24:55.867Z,97.46
2023-01-08T07:27:42.990Z,97.13
2023-01-08T07:30:30.857Z,96.47
2023-01-08T07:33:19.548Z,96.86
2023-01-08T07:36:16.332Z,97.48
2023-01-08T07:39:03.597Z,96.91
2023-01-08T07:41:50.613Z,97.12
2023-01-08T07:44:37.765Z,96.33
2023-01-08T07:47:24.711Z,96.63
2023-01-08T07:50:11.635Z,97.45
2023-01-08T07:52:58.472Z,97.26
2023-01-08T07:55:45.773Z,96.68
2023-01-08T07:58:34.270Z,97.55
2023-01-08T08:01:22.151Z,97.51
2023-01-08T08:04:09.208Z,97.37
2023-01-08T08:06:56.110Z,97.28
2023-01-08T08:09:43.169Z,97.08
2023-01-08T08:12:30.092Z,97.27
2023-01-08T08:15:17.091Z,96.83
2023-01-08T08:18:08.398Z,97.18
2023-01-08T08:20:55.562Z,96.66
2023-01-08T08:23:42.521Z,96.59
2023-01-08T08:26:29.429Z,97.21
2023-01-08T08:29:16.453Z,97.38
2023-01-08T08:32:03.423Z,97.13
2023-01-08T08:34:51.336Z,97.21
2023-01-08T08:37:38.387Z,96.58
2023-01-08T08:40:25.947Z,97.58
2023-01-08T08:43:21.433Z,96.86
2023-01-08T08:46:08.555Z,96.62
2023-01-08T08:48:55.375Z,97.44
2023-01-08T08:51:42.377Z,96.97
2023-01-08T08:54:30.871Z,97.60
2023-01-08T08:57:17.833Z,96.60
2023-01-08T09:00:04.780Z,96.50
2023-01-08T09:02:51.706Z,97.08
2023-01-08T09:05:38.758Z,97.05
2023-01-08T09:08:25.992Z,96.59
2023-01-08T09:11:14.392Z,97.45
2023-01-08T09:14:01.549Z,96.83
2023-01-08T09:16:48.618Z,96.57
2023-01-08T09:19:35.625Z,97.49
2023-01-08T09:22:23.120Z,96.74
2023-01-08T09:25:10.079Z,96.66
2023-01-08T09:27:57.104Z,96.77
2023-01-08T09:30:43.970Z,96.44
2023-01-08T09:33:30.917Z,96.82
2023-01-08T09:36:17.894Z,96.72
2023-01-08T09:39:05.290Z,96.39
2023-01-08T09:41:55.100Z,96.47
2023-01-08T09:44:48.520Z,96.92
2023-01-08T09:47:58.438Z,96.98
2023-01-08T09:50:47.368Z,96.80
2023-01-08T09:53:37.467Z,96.54
2023-01-08T09:56:30.885Z,97.46
2023-01-08T09:59:23.715Z,96.62
2023-01-08T10:02:12.858Z,96.42
2023-01-08T10:05:00.503Z,97.38
2023-01-08T10:07:50.395Z,97.35
2023-01-08T10:10:40.819Z,97.18
2023-01-08T10:13:31.410Z,96.88
2023-01-08T10:16:18.834Z,97.08
2023-01-08T10:19:06.066Z,97.38
2023-01-08T10:22:01.239Z,96.61
2023-01-08T10:24:53.438Z,97.38
2023-01-08T10:27:43.300Z,97.00
2023-01-08T10:30:36.737Z,96.53
2023-01-08T10:33:27.310Z,96.56
2023-01-08T10:36:23.577Z,96.84
2023-01-08T10:39:20.529Z,97.44
2023-01-08T10:42:08.258Z,96.43
2023-01-08T10:44:56.446Z,97.06
2023-01-08T10:47:44.845Z,96.44
2023-01-08T10:50:42.879Z,96.93
2023-01-08T10:53:49.039Z,97.38
2023-01-08T10:56:44.501Z,96.50
2023-01-08T10:59:39.124Z,97.29
2023-01-08T11:02:57.454Z,97.28
2023-01-08T11:06:04.699Z,96.47
2023-01-08T11:08:51.793Z,97.56
2023-01-08T11:11:39.611Z,96.53
2023-01-08T11:14:37.416Z,97.45
2023-01-08T11:17:30.721Z,96.59
2023-01-08T11:20:28.086Z,96.66
2023-01-08T11:23:35.483Z,96.58
2023-01-08T11:26:34.963Z,96.59
2023-01-08T11:29:33.734Z,97.07
2023-01-08T11:32:46.622Z,96.79
2023-01-08T11:35:39.027Z,97.26
2023-01-08T11:38:28.363Z,96.66
2023-01-08T11:41:40.040Z,97.13
2023-01-08T11:44:42.352Z,96.98
2023-01-08T11:48:07.393Z,96.77
2023-01-08T11:51:05.253Z,96.76
2023-01-08T11:54:14.304Z,97.26
2023-01-08T11:57:22.904Z,96.62
2023-01-08T12:00:21.940Z,97.50
2023-01-08T12:03:14.290Z,97.08
2023-01-08T12:06:01.054Z,97.42
2023-01-08T12:09:14.948Z,97.51
2023-01-08T12:12:34.057Z,96.82
2023-01-08T12:15:28.022Z,97.51
2023-01-08T12:18:28.082Z,96.70
2023-01-08T12:21:38.023Z,97.42
2023-01-08T12:25:01.213Z,97.45
2023-01-08T13:49:09.940Z,97.80
2023-01-08T13:51:44.236Z,98.12
2023-01-08T13:54:14.984Z,97.38
2023-01-08T13:56:44.196Z,98.14
2023-01-08T13:59:31.131Z,97.51
2023-01-08T14:02:01.349Z,97.62
2023-01-08T14:04:28.494Z,97.31
2023-01-08T14:07:12.839Z,97.59
2023-01-08T14:09:39.753Z,97.66
2023-01-08T14:12:14.593Z,98.01
2023-01-08T14:14:47.737Z,98.12
2023-01-08T14:17:20.441Z,97.39
2023-01-08T14:19:47.913Z,98.18
2023-01-08T14:22:21.612Z,97.27
2023-01-08T14:25:17.490Z,97.33
2023-01-08T14:28:15.772Z,97.39
2023-01-08T14:30:49.066Z,98.06
2023-01-08T14:33:17.165Z,97.78
2023-01-08T14:35:44.423Z,97.96
2023-01-08T14:38:14.619Z,97.30
2023-01-08T14:40:51.236Z,97.92
2023-01-08T14:43:20.886Z,97.23
2023-01-08T14:45:57.880Z,97.42
2023-01-08T14:48:41.816Z,97.31
2023-01-08T14:51:13.000Z,97.99
2023-01-08T14:53:46.257Z,97.90
2023-01-08T14:56:17.638Z,97.18
2023-01-08T14:58:46.608Z,97.61
2023-01-08T15:01:27.671Z,97.48
2023-01-08T15:04:18.381Z,97.80
2023-01-08T15:06:46.195Z,97.34
2023-01-08T15:09:39.446Z,97.40
2023-01-08T15:12:07.909Z,97.13
2023-01-08T15:14:36.963Z,97.60
2023-01-08T15:17:20.137Z,97.65
2023-01-08T15:19:53.728Z,97.10
2023-01-08T15:22:25.035Z,97.61
2023-01-08T15:24:55.816Z,97.03
2023-01-08T15:27:22.871Z,97.83
2023-01-08T15:30:03.632Z,97.25
2023-01-08T15:32:37.229Z,97.64
2023-01-08T15:35:18.734Z,97.27
2023-01-08T15:37:45.936Z,97.90
2023-01-08T15:40:12.990Z,97.55
2023-01-08T15:42:58.839Z,97.15
2023-01-08T15:45:32.383Z,97.06
2023-01-08T15:47:59.759Z,97.40
2023-01-08T15:50:27.940Z,97.22
2023-01-08T15:52:57.475Z,97.48
2023-01-08T15:55:25.255Z,97.62
2023-01-08T15:57:52.279Z,97.29
2023-01-08T16:00:22.517Z,97.83
2023-01-08T16:02:51.797Z,97.13
2023-01-08T16:05:20.618Z,97.01
2023-01-08T16:07:47.741Z,97.77
2023-01-08T16:10:16.117Z,96.97
2023-01-08T16:12:46.057Z,96.95
2023-01-08T16:15:14.608Z,97.18
2023-01-08T16:17:42.267Z,97.05
2023-01-08T16:20:10.426Z,97.03
2023-01-08T16:22:37.395Z,97.84
2023-01-08T16:25:05.176Z,96.71
2023-01-08T16:27:33.042Z,96.97
2023-01-08T16:30:20.376Z,97.02
2023-01-08T16:33:11.388Z,97.56
2023-01-08T16:35:58.345Z,97.36
2023-01-08T16:38:45.471Z,96.89
2023-01-08T16:41:32.349Z,97.32
2023-01-08T16:44:19.318Z,97.53
2023-01-08T16:47:07.212Z,97.74
2023-01-08T16:49:54.062Z,97.36
2023-01-08T16:52:41.056Z,97.77
2023-01-08T16:55:28.408Z,97.81
2023-01-08T16:58:15.462Z,96.87
2023-01-08T17:01:02.396Z,97.84
2023-01-08T17:03:49.499Z,97.72
2023-01-08T17:06:36.902Z,97.80
2023-01-08T17:09:24.519Z,97.63
2023-01-08T17:12:11.341Z,97.61
2023-01-08T17:14:58.278Z,97.24
2023-01-08T17:17:45.340Z,97.55
2023-01-08T17:20:32.559Z,97.08
2023-01-08T17:23:19.778Z,97.60
2023-01-08T17:26:06.798Z,97.64
2023-01-08T17:28:53.635Z,97.67
2023-01-08T17:31:41.654Z,97.32
2023-01-08T17:34:33.207Z,97.87
2023-01-08T17:37:21.698Z,98.00
2023-01-08T17:40:13.369Z,97.19
2023-01-08T17:43:00.309Z,97.68
2023-01-08T17:45:47.292Z,97.86
2023-01-08T17:48:34.207Z,98.01
2023-01-08T17:51:25.920Z,97.73
2023-01-08T17:54:12.927Z,97.98
2023-01-08T17:56:59.905Z,97.97
2023-01-08T17:59:47.009Z,97.99
2023-01-08T18:02:36.039Z,98.03
2023-01-08T18:05:23.128Z,98.17
2023-01-08T18:08:10.176Z,97.27
2023-01-08T18:10:57.997Z,98.17
2023-01-08T18:13:44.903Z,98.09
2023-01-08T18:16:33.982Z,97.50
2023-01-08T18:19:21.245Z,97.41
2023-01-08T18:22:08.365Z,97.33
2023-01-08T18:24:55.462Z,97.30
2023-01-08T18:27:42.409Z,97.50
2023-01-08T18:30:29.947Z,97.47
2023-01-08T18:33:16.931Z,97.64
2023-01-08T18:36:03.914Z,98.00
2023-01-08T18:38:50.874Z,97.39
2023-01-08T18:41:39.735Z,98.22
2023-01-08T18:44:28.627Z,97.41
2023-01-08T18:47:15.488Z,97.97
2023-01-08T18:50:02.383Z,97.67
2023-01-08T18:52:49.989Z,98.14
2023-01-08T18:55:37.076Z,97.98
2023-01-08T18:58:24.164Z,97.51
2023-01-08T19:01:11.176Z,97.94
2023-01-08T19:03:58.053Z,97.63
2023-01-08T19:06:45.390Z,98.14
2023-01-08T19:09:32.353Z,97.97
2023-01-08T19:12:19.270Z,97.67
2023-01-08T19:15:06.160Z,97.91
2023-01-08T19:17:53.294Z,98.07
2023-01-08T19:20:40.218Z,98.09
2023-01-08T19:23:27.193Z,97.44
2023-01-08T19:26:14.230Z,97.89
2023-01-08T19:29:04.820Z,97.75
2023-01-08T19:31:52.904Z,97.73
2023-01-08T19:34:39.847Z,98.24
2023-01-08T19:37:26.744Z,97.66
2023-01-08T19:40:13.531Z,98.09
2023-01-08T19:42:59.548Z,97.77
2023-01-08T19:45:46.545Z,97.73
2023-01-08T19:48:33.590Z,98.30
2023-01-08T19:51:26.526Z,97.53
2023-01-08T19:54:13.928Z,97.92
2023-01-08T19:57:00.743Z,98.24
2023-01-08T19:59:47.800Z,98.19
2023-01-08T20:02:34.764Z,98.20
2023-01-08T20:05:21.708Z,97.83
2023-01-08T20:08:12.041Z,98.31
2023-01-08T20:10:59.220Z,97.77
2023-01-08T20:13:46.308Z,97.69
2023-01-08T20:16:36.049Z,97.77
2023-01-08T20:19:23.535Z,98.25
2023-01-08T20:22:10.425Z,98.42
2023-01-08T20:24:58.672Z,98.38
2023-01-08T20:27:45.624Z,97.96
2023-01-08T20:30:32.875Z,98.18
2023-01-08T20:33:19.835Z,98.04
2023-01-08T20:36:06.687Z,98.17
2023-01-08T20:38:53.546Z,97.90
2023-01-08T20:41:46.521Z,97.95
2023-01-08T20:44:42.686Z,98.23
2023-01-08T20:47:29.718Z,98.19
2023-01-08T20:50:20.188Z,98.04
2023-01-08T20:53:08.027Z,98.36
2023-01-08T20:55:56.573Z,98.76
2023-01-08T20:58:43.603Z,98.21
2023-01-08T21:01:37.179Z,98.27
2023-01-08T21:04:27.566Z,98.47
2023-01-08T21:07:14.603Z,98.21
2023-01-08T21:10:01.473Z,98.26
2023-01-08T21:12:48.397Z,98.09
2023-01-08T21:15:35.319Z,97.76
2023-01-08T21:18:22.123Z,98.22
2023-01-08T21:21:09.204Z,98.12
2023-01-08T21:23:56.262Z,98.47
2023-01-08T21:26:43.246Z,98.32
2023-01-08T21:29:30.370Z,98.29
2023-01-08T21:32:17.597Z,98.19
2023-01-08T21:35:05.444Z,98.18
2023-01-08T21:37:52.622Z,98.42
2023-01-08T21:40:39.519Z,98.24
2023-01-08T21:43:24.818Z,98.44
2023-01-08T21:46:20.130Z,98.81
2023-01-08T21:49:09.901Z,98.25
2023-01-08T21:51:55.682Z,98.63
2023-01-08T21:54:42.803Z,98.06
2023-01-08T21:57:30.012Z,98.44
2023-01-08T22:00:16.962Z,98.24
2023-01-08T22:03:03.850Z,98.15
2023-01-08T22:05:51.002Z,98.67
2023-01-08T22:08:37.929Z,98.49
2023-01-08T22:11:29.222Z,98.49
2023-01-08T22:14:17.509Z,98.15
2023-01-08T22:17:04.449Z,98.27
2023-01-08T22:19:51.851Z,98.24
2023-01-08T22:22:39.421Z,98.48
2023-01-08T22:25:26.811Z,98.05
2023-01-08T22:28:13.709Z,98.03
2023-01-08T22:31:00.589Z,98.50
2023-01-08T22:33:47.555Z,98.48
2023-01-08T22:36:34.572Z,98.21
2023-01-08T22:39:21.450Z,98.30
2023-01-08T22:42:08.382Z,98.28
2023-01-08T22:44:55.289Z,98.46
2023-01-08T22:47:42.257Z,98.63
2023-01-08T22:50:29.908Z,98.14
2023-01-08T22:53:16.902Z,98.54
2023-01-08T22:56:08.717Z,98.24
2023-01-08T22:58:55.573Z,98.32
2023-01-08T23:01:45.162Z,98.09
2023-01-08T23:04:32.167Z,98.45
2023-01-08T23:07:19.125Z,98.19
2023-01-08T23:10:07.515Z,98.30
2023-01-08T23:12:54.520Z,97.54
2023-01-08T23:15:43.734Z,98.09
2023-01-08T23:18:30.915Z,98.33
2023-01-08T23:21:25.352Z,98.60
2023-01-08T23:24:12.767Z,98.45
2023-01-08T23:26:59.823Z,98.26
2023-01-08T23:29:49.631Z,98.21
2023-01-08T23:32:36.641Z,98.19
2023-01-08T23:35:24.073Z,98.39
2023-01-08T23:38:11.432Z,98.20
2023-01-08T23:41:02.861Z,98.17
2023-01-08T23:43:49.894Z,98.01
2023-01-08T23:46:37.873Z,98.24
2023-01-08T23:49:25.572Z,98.46
2023-01-08T23:52:12.664Z,98.37
2023-01-08T23:54:59.622Z,98.05
2023-01-08T23:57:47.074Z,98.19
